createdAt,value
2019-01-29T00:00:33.521Z,11.50
2019-01-29T00:03:04.088Z,7.30
2019-01-29T00:05:33.157Z,7.30
2019-01-29T00:08:01.945Z,11.43
2019-01-29T00:10:31.232Z,10.30
2019-01-29T00:12:59.963Z,6.50
2019-01-29T00:15:28.793Z,6.93
2019-01-29T00:17:57.817Z,12.97
2019-01-29T00:20:26.517Z,7.77
2019-01-29T00:22:55.253Z,5.83
2019-01-29T00:25:24.378Z,7.53
2019-01-29T00:27:53.316Z,6.23
2019-01-29T00:30:22.288Z,9.00
2019-01-29T00:32:52.599Z,5.40
2019-01-29T00:35:21.596Z,7.53
2019-01-29T00:37:50.288Z,8.03
2019-01-29T00:40:19.346Z,7.20
2019-01-29T00:42:48.073Z,7.90
2019-01-29T00:45:17.432Z,6.50
2019-01-29T00:47:46.467Z,7.37
2019-01-29T00:50:16.028Z,10.83
2019-01-29T00:52:46.629Z,7.80
2019-01-29T00:55:15.760Z,8.03
2019-01-29T00:57:44.857Z,5.57
2019-01-29T01:00:16.756Z,6.90
2019-01-29T01:02:45.869Z,7.63
2019-01-29T01:05:15.512Z,7.30
2019-01-29T01:07:44.388Z,5.27
2019-01-29T01:10:15.476Z,7.77
2019-01-29T01:12:44.501Z,8.47
2019-01-29T01:15:14.112Z,8.03
2019-01-29T01:17:42.894Z,7.43
2019-01-29T01:20:13.793Z,6.53
2019-01-29T01:22:50.384Z,14.17
2019-01-29T01:25:14.975Z,10.23
2019-01-29T01:27:44.010Z,9.33
2019-01-29T01:30:17.708Z,8.60
2019-01-29T01:32:47.393Z,9.00
2019-01-29T01:35:16.245Z,10.13
2019-01-29T01:37:45.373Z,11.00
2019-01-29T01:40:20.752Z,7.20
2019-01-29T01:42:49.566Z,12.07
2019-01-29T01:45:18.452Z,8.37
2019-01-29T01:47:47.221Z,9.33
2019-01-29T01:50:16.825Z,10.13
2019-01-29T01:52:45.840Z,10.73
2019-01-29T01:55:17.073Z,10.77
2019-01-29T01:57:46.365Z,11.50
2019-01-29T02:00:20.040Z,14.20
2019-01-29T02:02:48.853Z,7.40
2019-01-29T02:05:18.070Z,8.57
2019-01-29T02:07:47.096Z,6.50
2019-01-29T02:10:27.920Z,15.03
2019-01-29T02:12:57.159Z,9.60
2019-01-29T02:15:26.016Z,13.27
2019-01-29T02:17:54.750Z,9.07
2019-01-29T02:20:23.540Z,8.83
2019-01-29T02:22:52.573Z,10.47
2019-01-29T02:25:21.312Z,10.63
2019-01-29T02:27:50.173Z,9.83
2019-01-29T02:30:20.894Z,11.33
2019-01-29T02:32:49.764Z,9.67
2019-01-29T02:35:18.808Z,11.80
2019-01-29T02:37:47.596Z,9.80
2019-01-29T02:40:18.997Z,10.93
2019-01-29T02:42:48.061Z,9.70
2019-01-29T02:45:17.147Z,6.23
2019-01-29T02:47:46.465Z,14.70
2019-01-29T02:50:16.924Z,17.10
2019-01-29T02:52:46.188Z,11.80
2019-01-29T02:55:15.189Z,18.73
2019-01-29T02:57:43.892Z,9.50
2019-01-29T03:00:16.271Z,8.90
2019-01-29T03:02:45.337Z,6.90
2019-01-29T03:05:15.102Z,9.00
2019-01-29T03:07:43.981Z,7.90
2019-01-29T03:10:15.745Z,8.43
2019-01-29T03:12:44.690Z,14.73
2019-01-29T03:15:16.485Z,12.13
2019-01-29T03:17:45.374Z,20.30
2019-01-29T03:20:14.873Z,11.17
2019-01-29T03:22:43.898Z,7.83
2019-01-29T03:25:13.104Z,10.70
2019-01-29T03:27:41.873Z,15.30
2019-01-29T03:30:13.027Z,8.33
2019-01-29T03:32:42.046Z,9.27
2019-01-29T03:35:11.358Z,12.40
2019-01-29T03:37:40.213Z,9.77
2019-01-29T03:40:12.439Z,10.93
2019-01-29T03:42:41.126Z,16.33
2019-01-29T03:45:12.444Z,7.20
2019-01-29T03:47:41.221Z,20.20
2019-01-29T03:50:11.188Z,14.97
2019-01-29T03:52:39.990Z,9.80
2019-01-29T03:55:09.401Z,8.53
2019-01-29T03:57:38.381Z,13.20
2019-01-29T04:00:13.662Z,13.43
2019-01-29T04:02:42.500Z,11.50
2019-01-29T04:05:11.309Z,15.27
2019-01-29T04:07:40.009Z,14.10
2019-01-29T04:10:10.128Z,16.17
2019-01-29T04:12:38.877Z,14.13
2019-01-29T04:15:09.794Z,14.27
2019-01-29T04:17:38.927Z,17.20
2019-01-29T04:20:08.422Z,7.90
2019-01-29T04:22:40.239Z,18.30
2019-01-29T04:25:09.278Z,13.07
2019-01-29T04:27:38.104Z,15.47
2019-01-29T04:30:08.550Z,18.90
2019-01-29T04:32:37.529Z,12.63
2019-01-29T04:35:06.600Z,15.13
2019-01-29T04:37:35.624Z,23.87
2019-01-29T04:40:05.866Z,14.37
2019-01-29T04:42:35.086Z,14.27
2019-01-29T04:45:04.684Z,20.70
2019-01-29T04:47:33.413Z,19.23
2019-01-29T04:50:02.189Z,12.83
2019-01-29T04:52:31.151Z,17.53
2019-01-29T04:54:59.882Z,9.47
2019-01-29T04:57:28.580Z,15.30
2019-01-29T04:59:57.575Z,14.90
2019-01-29T05:02:26.311Z,12.47
2019-01-29T05:04:55.060Z,18.30
2019-01-29T05:07:23.834Z,12.47
2019-01-29T05:09:52.564Z,12.20
2019-01-29T05:12:21.285Z,14.10
2019-01-29T05:14:49.986Z,14.53
2019-01-29T05:17:19.022Z,16.83
2019-01-29T05:19:47.778Z,18.47
2019-01-29T05:22:16.565Z,20.27
2019-01-29T05:24:45.292Z,21.90
2019-01-29T05:27:14.280Z,38.17
2019-01-29T05:29:42.985Z,34.73
2019-01-29T05:32:11.786Z,24.97
2019-01-29T05:34:40.732Z,29.80
2019-01-29T05:37:09.689Z,39.43
2019-01-29T05:39:38.634Z,34.00
2019-01-29T05:42:07.346Z,38.93
2019-01-29T05:44:36.084Z,32.77
2019-01-29T05:47:04.904Z,30.30
2019-01-29T05:49:33.707Z,43.00
2019-01-29T05:52:02.766Z,40.30
2019-01-29T05:54:31.695Z,37.17
2019-01-29T05:57:00.517Z,42.83
2019-01-29T05:59:29.520Z,46.73
2019-01-29T06:01:58.229Z,40.17
2019-01-29T06:04:27.073Z,38.53
2019-01-29T06:06:56.397Z,34.63
2019-01-29T06:09:25.193Z,35.50
2019-01-29T06:11:54.221Z,43.70
2019-01-29T06:14:23.480Z,50.00
2019-01-29T06:16:52.210Z,43.70
2019-01-29T06:19:20.908Z,46.20
2019-01-29T06:21:50.316Z,50.20
2019-01-29T06:24:25.474Z,42.60
2019-01-29T06:26:49.527Z,38.30
2019-01-29T06:29:37.464Z,51.17
2019-01-29T06:32:06.281Z,40.87
2019-01-29T06:34:35.265Z,49.83
2019-01-29T06:37:04.285Z,43.60
2019-01-29T06:39:33.256Z,40.93
2019-01-29T06:42:01.962Z,46.10
2019-01-29T06:44:30.721Z,38.27
2019-01-29T06:46:59.710Z,43.17
2019-01-29T06:49:28.670Z,44.87
2019-01-29T06:51:57.369Z,47.33
2019-01-29T06:54:33.938Z,43.87
2019-01-29T06:57:01.041Z,47.23
2019-01-29T06:59:29.765Z,47.53
2019-01-29T07:01:58.563Z,48.73
2019-01-29T07:04:27.544Z,41.23
2019-01-29T07:06:56.628Z,42.80
2019-01-29T07:09:25.341Z,47.43
2019-01-29T07:12:02.012Z,47.57
2019-01-29T07:14:31.217Z,51.97
2019-01-29T07:17:25.599Z,44.20
2019-01-29T07:19:57.189Z,49.90
2019-01-29T07:22:25.884Z,46.73
2019-01-29T07:24:54.938Z,47.10
2019-01-29T07:27:23.673Z,48.90
2019-01-29T07:29:53.194Z,49.00
2019-01-29T07:32:21.904Z,50.80
2019-01-29T07:34:51.294Z,47.57
2019-01-29T07:37:21.939Z,57.83
2019-01-29T07:39:51.250Z,42.83
2019-01-29T07:42:20.137Z,48.80
2019-01-29T07:44:49.208Z,45.23
2019-01-29T07:47:17.908Z,39.67
2019-01-29T07:49:46.645Z,33.60
2019-01-29T07:52:16.525Z,37.33
2019-01-29T07:54:51.072Z,38.10
2019-01-29T07:57:16.540Z,38.40
2019-01-29T07:59:45.499Z,32.60
2019-01-29T08:02:14.234Z,30.67
2019-01-29T08:04:43.031Z,37.80
2019-01-29T08:07:11.973Z,42.63
2019-01-29T08:09:40.668Z,34.60
2019-01-29T08:12:11.188Z,41.90
2019-01-29T08:14:44.193Z,40.83
2019-01-29T08:17:13.005Z,44.73
2019-01-29T08:19:43.000Z,40.17
2019-01-29T08:22:11.735Z,39.03
2019-01-29T08:24:40.694Z,35.10
2019-01-29T08:27:09.464Z,40.23
2019-01-29T08:29:38.280Z,45.07
2019-01-29T08:32:07.301Z,38.00
2019-01-29T08:34:36.271Z,32.20
2019-01-29T08:37:05.048Z,45.40
2019-01-29T08:39:33.781Z,33.93
2019-01-29T08:42:02.528Z,34.73
2019-01-29T08:44:31.303Z,34.17
2019-01-29T08:47:00.036Z,32.13
2019-01-29T08:49:29.869Z,33.43
2019-01-29T08:51:58.854Z,33.80
2019-01-29T08:54:28.133Z,31.90
2019-01-29T08:56:56.844Z,41.13
2019-01-29T08:59:26.660Z,29.97
2019-01-29T09:01:55.667Z,29.47
2019-01-29T09:04:24.712Z,26.67
2019-01-29T09:06:53.483Z,33.00
2019-01-29T09:09:22.196Z,32.07
2019-01-29T09:11:50.988Z,30.30
2019-01-29T09:14:22.252Z,27.07
2019-01-29T09:16:50.961Z,28.53
2019-01-29T09:19:19.752Z,35.50
2019-01-29T09:21:48.500Z,33.23
2019-01-29T09:24:17.200Z,30.57
2019-01-29T09:26:47.234Z,40.30
2019-01-29T09:29:17.721Z,39.73
2019-01-29T09:31:46.880Z,29.27
2019-01-29T09:34:15.882Z,29.50
2019-01-29T09:36:44.703Z,33.00
2019-01-29T09:39:13.511Z,27.30
2019-01-29T09:41:44.155Z,31.27
2019-01-29T09:44:15.622Z,33.97
2019-01-29T09:46:44.920Z,24.00
2019-01-29T09:49:13.620Z,32.70
2019-01-29T09:51:42.365Z,31.30
2019-01-29T09:54:11.740Z,36.53
2019-01-29T09:56:41.489Z,33.27
2019-01-29T09:59:10.428Z,34.67
2019-01-29T10:01:39.655Z,34.33
2019-01-29T10:04:08.469Z,36.53
2019-01-29T10:06:37.424Z,40.20
2019-01-29T10:09:08.391Z,25.40
2019-01-29T10:11:37.208Z,30.03
2019-01-29T10:14:07.198Z,29.30
2019-01-29T10:16:36.194Z,31.53
2019-01-29T10:19:05.202Z,26.37
2019-01-29T10:21:34.053Z,25.33
2019-01-29T10:24:03.101Z,25.90
2019-01-29T10:26:32.101Z,24.87
2019-01-29T10:29:00.836Z,29.33
2019-01-29T10:31:29.793Z,22.50
2019-01-29T10:34:18.182Z,24.73
2019-01-29T10:36:47.005Z,22.80
2019-01-29T10:39:15.721Z,22.30
2019-01-29T10:41:44.742Z,21.10
2019-01-29T10:44:13.452Z,20.27
2019-01-29T10:46:42.320Z,22.07
2019-01-29T10:49:12.405Z,21.83
2019-01-29T10:51:41.724Z,14.27
2019-01-29T10:54:11.908Z,17.50
2019-01-29T10:56:42.528Z,23.37
2019-01-29T10:59:12.085Z,21.57
2019-01-29T11:01:44.558Z,17.07
2019-01-29T11:04:13.739Z,15.97
2019-01-29T11:06:46.945Z,14.00
2019-01-29T11:09:25.167Z,19.50
2019-01-29T11:11:48.328Z,18.70
2019-01-29T11:14:17.341Z,15.37
2019-01-29T11:16:46.164Z,22.23
2019-01-29T11:19:15.249Z,14.90
2019-01-29T11:21:44.092Z,15.57
2019-01-29T11:24:12.816Z,18.00
2019-01-29T11:26:41.568Z,13.00
2019-01-29T11:29:10.342Z,12.30
2019-01-29T11:31:39.062Z,12.40
2019-01-29T11:34:08.103Z,13.50
2019-01-29T11:36:37.064Z,13.90
2019-01-29T11:39:09.285Z,10.30
2019-01-29T11:41:38.308Z,10.97
2019-01-29T11:44:07.297Z,7.83
2019-01-29T11:46:36.217Z,18.57
2019-01-29T11:49:04.945Z,13.70
2019-01-29T11:51:33.733Z,9.17
2019-01-29T11:54:02.701Z,11.37
2019-01-29T11:56:31.722Z,20.90
2019-01-29T11:59:00.966Z,12.30
2019-01-29T12:01:29.884Z,16.00
2019-01-29T12:03:58.605Z,10.47
2019-01-29T12:06:27.500Z,9.10
2019-01-29T12:08:56.204Z,9.13
2019-01-29T12:11:25.161Z,8.63
2019-01-29T12:13:54.504Z,10.07
2019-01-29T12:16:23.209Z,6.53
2019-01-29T12:18:51.949Z,6.70
2019-01-29T12:21:39.985Z,8.50
2019-01-29T12:24:09.059Z,7.50
2019-01-29T12:26:38.807Z,8.83
2019-01-29T12:29:07.580Z,6.33
2019-01-29T12:31:36.317Z,6.10
2019-01-29T12:34:05.137Z,14.03
2019-01-29T12:36:34.140Z,12.43
2019-01-29T12:39:04.749Z,11.47
2019-01-29T12:41:33.561Z,7.63
2019-01-29T12:44:02.617Z,12.73
2019-01-29T12:46:32.503Z,7.60
2019-01-29T12:49:01.255Z,5.90
2019-01-29T12:51:38.843Z,11.83
2019-01-29T12:54:07.870Z,5.60
2019-01-29T12:56:37.500Z,8.70
2019-01-29T12:59:06.292Z,9.53
2019-01-29T13:01:35.815Z,8.43
2019-01-29T13:04:05.152Z,18.30
2019-01-29T13:06:34.392Z,11.00
2019-01-29T13:09:05.234Z,12.20
2019-01-29T13:11:34.431Z,6.43
2019-01-29T13:14:03.459Z,5.43
2019-01-29T13:16:32.760Z,4.30
2019-01-29T13:19:02.134Z,5.00
2019-01-29T13:21:31.103Z,4.57
2019-01-29T13:24:00.142Z,12.20
2019-01-29T13:26:30.066Z,6.30
2019-01-29T13:29:00.001Z,7.20
2019-01-29T13:31:29.033Z,6.13
2019-01-29T13:33:58.120Z,6.40
2019-01-29T13:36:27.169Z,8.63
2019-01-29T13:38:56.148Z,9.00
2019-01-29T13:41:24.913Z,5.93
2019-01-29T13:43:53.949Z,6.40
2019-01-29T13:46:22.789Z,7.13
2019-01-29T13:48:51.769Z,8.47
2019-01-29T13:51:20.752Z,7.40
2019-01-29T13:53:50.608Z,4.83
2019-01-29T13:56:19.549Z,6.00
2019-01-29T13:58:48.660Z,6.03
2019-01-29T14:01:17.521Z,8.90
2019-01-29T14:03:46.517Z,8.57
2019-01-29T14:06:15.295Z,14.10
2019-01-29T14:08:44.036Z,6.40
2019-01-29T14:11:12.760Z,7.10
2019-01-29T14:13:41.914Z,21.43
2019-01-29T14:16:13.104Z,6.53
2019-01-29T14:18:41.844Z,6.37
2019-01-29T14:21:10.848Z,11.00
2019-01-29T14:23:39.704Z,9.07
2019-01-29T14:26:08.501Z,7.63
2019-01-29T14:28:37.461Z,3.23
2019-01-29T14:31:06.402Z,2.47
2019-01-29T14:33:35.170Z,5.50
2019-01-29T14:36:07.105Z,4.00
2019-01-29T14:39:20.228Z,3.10
2019-01-29T14:41:49.204Z,1.90
2019-01-29T14:44:30.564Z,3.43
2019-01-29T14:47:00.046Z,5.80
2019-01-29T14:49:29.072Z,7.57
2019-01-29T14:51:58.149Z,5.40
2019-01-29T14:54:27.141Z,7.83
2019-01-29T14:56:57.273Z,8.57
2019-01-29T14:59:26.312Z,8.93
2019-01-29T15:01:55.404Z,7.43
2019-01-29T15:04:24.262Z,6.57
2019-01-29T15:06:53.197Z,9.50
2019-01-29T15:09:21.998Z,7.97
2019-01-29T15:11:50.945Z,11.17
2019-01-29T15:14:20.195Z,8.90
2019-01-29T15:17:21.010Z,11.20
2019-01-29T15:19:50.626Z,8.87
2019-01-29T15:22:19.588Z,12.50
2019-01-29T15:24:48.544Z,11.43
2019-01-29T15:27:17.271Z,10.30
2019-01-29T15:29:49.017Z,10.70
2019-01-29T15:32:17.723Z,9.03
2019-01-29T15:34:46.675Z,6.50
2019-01-29T15:37:15.487Z,9.73
2019-01-29T15:39:44.187Z,9.83
2019-01-29T15:42:13.489Z,8.13
2019-01-29T15:44:45.141Z,8.50
2019-01-29T15:47:14.145Z,6.33
2019-01-29T15:49:45.925Z,9.03
2019-01-29T15:52:15.342Z,8.43
2019-01-29T15:54:45.300Z,10.27
2019-01-29T15:57:14.588Z,15.80
2019-01-29T15:59:44.072Z,8.53
2019-01-29T16:02:12.980Z,9.70
2019-01-29T16:04:41.675Z,13.60
2019-01-29T16:07:10.563Z,10.03
2019-01-29T16:09:39.305Z,8.53
2019-01-29T16:12:08.006Z,13.07
2019-01-29T16:14:37.001Z,8.87
2019-01-29T16:17:06.075Z,6.97
2019-01-29T16:19:34.836Z,12.53
2019-01-29T16:22:04.342Z,7.47
2019-01-29T16:24:33.084Z,11.77
2019-01-29T16:27:06.979Z,10.97
2019-01-29T16:29:32.800Z,10.63
2019-01-29T16:32:01.756Z,10.80
2019-01-29T16:34:30.498Z,7.93
2019-01-29T16:36:59.458Z,8.73
2019-01-29T16:39:28.221Z,7.93
2019-01-29T16:41:56.957Z,8.63
2019-01-29T16:44:25.916Z,7.40
2019-01-29T16:46:58.353Z,9.23
2019-01-29T16:49:27.197Z,6.57
2019-01-29T16:51:56.563Z,6.40
2019-01-29T16:54:26.255Z,10.00
2019-01-29T16:56:55.461Z,8.37
2019-01-29T16:59:27.562Z,7.83
2019-01-29T17:01:56.872Z,8.23
2019-01-29T17:04:28.869Z,5.60
2019-01-29T17:07:00.780Z,11.43
2019-01-29T17:09:29.689Z,9.90
2019-01-29T17:11:59.337Z,11.60
2019-01-29T17:14:28.093Z,8.07
2019-01-29T17:16:57.353Z,9.00
2019-01-29T17:19:26.557Z,11.90
2019-01-29T17:21:56.116Z,7.43
2019-01-29T17:24:28.273Z,8.47
2019-01-29T17:26:57.471Z,10.10
2019-01-29T17:29:26.473Z,7.47
2019-01-29T17:31:55.701Z,8.07
2019-01-29T17:34:24.833Z,6.03
2019-01-29T17:36:54.654Z,6.83
2019-01-29T17:39:24.599Z,6.77
2019-01-29T17:41:53.723Z,9.20
2019-01-29T17:44:23.601Z,6.10
2019-01-29T17:46:53.045Z,5.40
2019-01-29T17:49:22.241Z,9.93
2019-01-29T17:51:54.393Z,8.67
2019-01-29T17:54:26.217Z,6.43
2019-01-29T17:56:55.385Z,6.10
2019-01-29T17:59:24.196Z,8.73
2019-01-29T18:01:53.800Z,5.27
2019-01-29T18:04:24.281Z,8.20
2019-01-29T18:06:54.371Z,10.87
2019-01-29T18:09:25.170Z,5.77
2019-01-29T18:11:53.954Z,5.83
2019-01-29T18:14:22.942Z,6.00
2019-01-29T18:16:51.878Z,6.77
2019-01-29T18:19:20.849Z,5.00
2019-01-29T18:21:56.693Z,5.00
2019-01-29T18:24:20.000Z,6.10
2019-01-29T18:26:48.724Z,6.47
2019-01-29T18:29:17.557Z,6.70
2019-01-29T18:31:46.256Z,5.40
2019-01-29T18:34:14.990Z,9.00
2019-01-29T18:36:43.922Z,5.40
2019-01-29T18:39:12.882Z,4.40
2019-01-29T18:41:41.965Z,5.30
2019-01-29T18:44:10.958Z,5.27
2019-01-29T18:46:40.877Z,7.23
2019-01-29T18:49:09.863Z,6.90
2019-01-29T18:51:38.918Z,7.60
2019-01-29T18:54:08.421Z,7.60
2019-01-29T18:56:39.917Z,8.20
2019-01-29T18:59:08.865Z,4.90
2019-01-29T19:01:37.565Z,6.90
2019-01-29T19:04:06.651Z,8.47
2019-01-29T19:06:35.621Z,11.03
2019-01-29T19:09:07.005Z,8.80
2019-01-29T19:11:35.768Z,5.30
2019-01-29T19:14:04.621Z,9.00
2019-01-29T19:16:33.695Z,9.13
2019-01-29T19:19:02.705Z,10.27
2019-01-29T19:21:31.874Z,38.30
2019-01-29T19:24:00.597Z,19.73
2019-01-29T19:26:29.760Z,116.67
2019-01-29T19:28:59.728Z,18.77
2019-01-29T19:31:28.708Z,10.07
2019-01-29T19:33:57.737Z,7.57
2019-01-29T19:36:26.700Z,10.33
2019-01-29T19:38:55.725Z,9.27
2019-01-29T19:41:24.631Z,10.00
2019-01-29T19:43:53.343Z,9.57
2019-01-29T19:46:22.401Z,10.53
2019-01-29T19:48:51.126Z,13.70
2019-01-29T19:51:20.283Z,14.37
2019-01-29T19:53:49.473Z,10.30
2019-01-29T19:56:18.655Z,9.17
2019-01-29T19:58:47.577Z,9.40
2019-01-29T20:01:17.381Z,11.60
2019-01-29T20:03:47.155Z,14.00
2019-01-29T20:06:16.489Z,24.53
2019-01-29T20:08:45.445Z,19.90
2019-01-29T20:11:14.545Z,16.63
2019-01-29T20:13:43.242Z,13.93
2019-01-29T20:16:12.213Z,13.00
2019-01-29T20:18:41.142Z,15.93
2019-01-29T20:21:10.006Z,10.53
2019-01-29T20:23:41.296Z,13.03
2019-01-29T20:26:10.496Z,13.93
2019-01-29T20:28:42.482Z,10.70
2019-01-29T20:31:10.373Z,8.97
2019-01-29T20:33:39.161Z,9.30
2019-01-29T20:36:08.551Z,10.40
2019-01-29T20:38:37.797Z,10.87
2019-01-29T20:41:06.655Z,13.93
2019-01-29T20:43:35.607Z,14.60
2019-01-29T20:46:04.564Z,12.83
2019-01-29T20:48:33.778Z,12.83
2019-01-29T20:51:02.731Z,13.93
2019-01-29T20:53:31.704Z,11.03
2019-01-29T20:56:01.140Z,31.53
2019-01-29T20:58:30.181Z,15.80
2019-01-29T21:00:59.129Z,15.07
2019-01-29T21:03:27.989Z,12.30
2019-01-29T21:05:56.724Z,12.53
2019-01-29T21:08:25.454Z,9.73
2019-01-29T21:10:54.298Z,11.00
2019-01-29T21:13:23.060Z,12.70
2019-01-29T21:15:51.873Z,17.53
2019-01-29T21:18:20.954Z,9.30
2019-01-29T21:20:56.862Z,9.70
2019-01-29T21:23:21.164Z,12.53
2019-01-29T21:25:49.929Z,12.10
2019-01-29T21:28:19.153Z,13.90
2019-01-29T21:30:51.621Z,11.20
2019-01-29T21:33:20.565Z,13.83
2019-01-29T21:35:50.360Z,15.63
2019-01-29T21:38:19.616Z,15.10
2019-01-29T21:40:53.552Z,11.40
2019-01-29T21:43:24.546Z,13.00
2019-01-29T21:45:53.295Z,14.20
2019-01-29T21:48:25.042Z,13.17
2019-01-29T21:50:54.064Z,15.80
2019-01-29T21:53:22.843Z,11.30
2019-01-29T21:55:51.665Z,12.30
2019-01-29T21:58:20.433Z,12.40
2019-01-29T22:00:49.520Z,13.67
2019-01-29T22:03:18.404Z,17.03
2019-01-29T22:05:47.364Z,14.30
2019-01-29T22:08:16.216Z,15.33
2019-01-29T22:10:45.782Z,16.90
2019-01-29T22:13:14.573Z,18.10
2019-01-29T22:15:43.360Z,21.00
2019-01-29T22:18:13.265Z,13.53
2019-01-29T22:20:42.112Z,14.70
2019-01-29T22:23:11.758Z,18.17
2019-01-29T22:25:40.777Z,15.37
2019-01-29T22:28:10.638Z,13.27
2019-01-29T22:30:40.898Z,13.07
2019-01-29T22:33:10.141Z,14.90
2019-01-29T22:35:39.045Z,13.80
2019-01-29T22:38:08.324Z,14.60
2019-01-29T22:40:37.284Z,13.67
2019-01-29T22:43:06.177Z,13.00
2019-01-29T22:45:35.201Z,15.90
2019-01-29T22:48:05.514Z,18.13
2019-01-29T22:50:36.694Z,12.73
2019-01-29T22:53:06.552Z,13.33
2019-01-29T22:55:35.598Z,12.07
2019-01-29T22:58:05.470Z,17.07
2019-01-29T23:01:16.962Z,13.80
2019-01-29T23:04:12.710Z,12.50
2019-01-29T23:07:09.504Z,20.37
2019-01-29T23:09:38.336Z,16.07
2019-01-29T23:12:07.603Z,11.43
2019-01-29T23:14:36.854Z,12.50
2019-01-29T23:17:05.729Z,13.70
2019-01-29T23:19:34.442Z,15.80
2019-01-29T23:22:03.498Z,13.60
2019-01-29T23:24:32.669Z,11.93
2019-01-29T23:27:01.671Z,16.17
2019-01-29T23:29:30.378Z,14.80
2019-01-29T23:31:59.108Z,12.60
2019-01-29T23:34:27.817Z,12.87
2019-01-29T23:36:57.333Z,15.83
2019-01-29T23:39:26.742Z,13.87
2019-01-29T23:41:55.473Z,14.07
2019-01-29T23:44:24.217Z,11.17
2019-01-29T23:46:53.214Z,12.63
2019-01-29T23:49:22.281Z,11.43
2019-01-29T23:51:51.312Z,14.90
2019-01-29T23:54:20.294Z,12.63
2019-01-29T23:56:48.992Z,13.90
2019-01-29T23:59:17.737Z,11.50
